Latest Coastal Weather Observations for Samuel Hill

IDQ60701

Issued at 11:31 am EST Wednesday 25 May 2016 (issued every 10 minutes, with the page automatically refreshed every 10 minutes)

About coastal observations | Map of coastal stations | Coastal observations for QLD | Marine services | Other Formats
Station Details ID: 033308 Name: SAMUEL HILL AERO Lat: -22.74 Lon: 150.66 Height: 31.0 m
Data from the previous 72 hours. | See also: Recent months at Samuel Hill
Date/Time
EST
Temp

°C
Wind Pressure Rain
since 9am
mm
Weather Cloud Vis
km
Sea
Height
m
Swell
Dir
 
Speed
knots
Gust
knots
hPa Trend Height
m
Period
s
Dir
25/11:30am 24.9 S 7 9 1017.1 - 0.0 - - 10 - - - -
25/11:00am 24.2 SSE 7 12 1017.3 - 0.0 - - 10 - - - -
25/10:30am 23.8 SSE 7 10 1017.8 - 0.0 - - 10 - - - -
25/10:00am 23.7 SSE 6 9 1017.9 - 0.0 - - 10 - - - -
25/09:30am 23.1 SSE 6 10 1017.9 - 0.0 - - 10 - - - -
25/09:00am 20.2 CALM 0 1 1017.8 - 0.0 - - 10 - - - -
25/08:30am 18.6 SSE 1 4 1018.0 - 0.0 - - 10 - - - -
25/08:00am 18.0 SW 1 4 1017.9 - 0.0 - - 10 - - - -
25/07:30am 16.9 CALM 0 0 1017.7 - 0.0 - - 10 - - - -
25/07:00am 16.4 W 1 3 1017.1 - 0.0 - - 10 - - - -
25/06:30am 16.2 W 3 4 1017.0 - 0.0 - - 10 - - - -
25/06:00am 16.4 SW 2 5 1016.7 - 0.0 - Mostly clear 10 - - - -
25/05:30am 16.5 CALM 0 0 1016.4 - 0.0 - - 10 - - - -
25/05:00am 16.3 SSE 4 6 1016.2 - 0.0 - - 10 - - - -
25/04:30am 16.4 CALM 0 0 1015.7 - 0.0 - - 10 - - - -
25/04:00am 16.5 CALM 0 0 1015.9 - 0.0 - - 10 - - - -
25/03:30am 16.6 CALM 0 0 1016.0 - 0.0 - - 10 - - - -
25/03:00am 16.7 CALM 0 0 1016.1 - 0.0 - - 10 - - - -
25/02:30am 17.2 CALM 0 0 1016.1 - 0.0 - - 10 - - - -
25/02:00am 17.3 CALM 0 0 1016.5 - 0.0 - - 10 - - - -
25/01:30am 17.3 CALM 0 0 1016.9 - 0.0 - - 10 - - - -
25/01:00am 17.4 CALM 0 0 1017.0 - 0.0 - - 10 - - - -
25/12:30am 17.3 CALM 0 0 1016.6 - 0.0 - - 10 - - - -
25/12:00am 17.6 CALM 0 0 1016.7 - 0.0 - - 10 - - - -
 
Date/Time
EST
Temp

°C
Wind Pressure Rain
since 9am
mm
Weather Cloud Vis
km
Sea
Height
m
Swell
Dir
 
Speed
knots
Gust
knots
hPa Trend Height
m
Period
s
Dir
24/11:30pm 17.7 CALM 0 0 1017.0 - 0.0 - - 10 - - - -
24/11:00pm 17.8 CALM 0 0 1017.0 - 0.0 - - 10 - - - -
24/10:30pm 18.1 CALM 0 0 1017.2 - 0.0 - - 10 - - - -
24/10:00pm 18.3 CALM 0 0 1017.4 - 0.0 - - 10 - - - -
24/09:30pm 18.4 CALM 0 0 1017.2 - 0.0 - - 10 - - - -
24/09:00pm 18.9 CALM 0 0 1017.4 - 0.0 - - 10 - - - -
24/08:30pm 19.1 CALM 0 0 1017.1 - 0.0 - - 10 - - - -
24/08:00pm 19.6 CALM 0 0 1017.0 - 0.0 - - 10 - - - -
24/07:30pm 20.2 CALM 0 0 1017.2 - 0.0 - - 10 - - - -
24/07:00pm 21.0 CALM 0 0 1017.1 - 0.0 - - 10 - - - -
24/06:30pm 21.4 NNE 1 3 1016.8 - 0.0 - - 10 - - - -
24/06:00pm 21.4 NNE 4 5 1016.4 - 0.0 - Mostly clear 10 - - - -
24/05:30pm 22.7 NNE 4 4 1016.0 - 0.0 - - 10 - - - -
24/05:00pm 24.1 NE 4 5 1016.1 - 0.0 - - 10 - - - -
24/04:30pm 26.0 NE 6 8 1015.6 - 0.0 - - 10 - - - -
24/04:00pm 26.7 NE 6 8 1015.2 - 0.0 - - 10 - - - -
24/03:30pm 27.5 NE 4 7 1014.9 - 0.0 - - 10 - - - -
24/03:00pm 27.4 ENE 4 6 1014.9 - 0.0 - Partly cloudy 10 - - - -
24/02:30pm 27.2 NE 5 6 1014.9 - 0.0 - - 10 - - - -
24/02:00pm 27.8 SSW 3 5 1014.9 - 0.0 - - 10 - - - -
24/01:30pm 26.9 SSW 5 8 1015.1 - 0.0 - - 10 - - - -
24/01:00pm 26.8 SSW 6 8 1015.2 - 0.0 - - 10 - - - -
24/12:30pm 26.9 SW 6 9 1015.7 - 0.0 - - 10 - - - -
24/12:00pm 26.5 SSW 4 6 1016.2 - 0.0 - Cloudy 10 - - - -
24/11:30am 26.1 W 4 6 1016.6 - 0.0 - - 10 - - - -
24/11:00am 25.2 W 3 6 1017.0 - 0.0 - - 10 - - - -
24/10:30am 26.5 SW 2 7 1017.3 - 0.0 - - 10 - - - -
24/10:00am 24.6 W 2 5 1017.8 - 0.0 - - 10 - - - -
24/09:30am 22.9 NNW 3 4 1018.3 - 0.0 - - 10 - - - -
24/09:00am 21.2 CALM 0 0 1018.4 - 0.8 - Cloudy 10 - - - -
24/08:30am 20.2 CALM 0 0 1018.1 - 0.8 - - 10 - - - -
24/08:00am 19.0 CALM 0 0 1017.8 - 0.8 - - 10 - - - -
24/07:30am 18.9 CALM 0 0 1017.5 - 0.8 - Partly cloudy 10 - - - -
24/07:00am 18.6 CALM 0 0 1017.4 - 0.8 - Cloudy 10 - - - -
24/06:30am 18.6 CALM 0 0 1017.3 - 0.8 - Cloudy 10 - - - -
24/06:00am 18.6 CALM 0 0 1017.1 - 0.8 - Cloudy 10 - - - -
24/05:30am 18.6 CALM 0 0 1017.3 - 0.8 - Cloudy 10 - - - -
24/05:00am 18.7 CALM 0 0 1017.0 - 0.8 - Cloudy 10 - - - -
24/04:30am 18.9 CALM 0 0 1017.0 - 0.8 - Cloudy 10 - - - -
24/04:00am 18.8 CALM 0 0 1017.1 - 0.8 - Cloudy 10 - - - -
24/03:30am 18.9 CALM 0 0 1017.2 - 0.8 - Cloudy 10 - - - -
24/03:00am 18.9 CALM 0 0 1017.3 - 0.8 Rain Cloudy 10 - - - -
24/02:30am 19.1 CALM 0 0 1017.4 - 0.8 - - 10 - - - -
24/02:00am 19.1 CALM 0 0 1017.6 - 0.8 - Cloudy 10 - - - -
24/01:30am 19.1 CALM 0 0 1017.7 - 0.6 - - 10 - - - -
24/01:00am 19.2 CALM 0 0 1017.9 - 0.6 - - 10 - - - -
24/12:30am 19.3 CALM 0 0 1017.9 - 0.6 - - 10 - - - -
24/12:00am 19.4 CALM 0 0 1018.1 - 0.6 Rain Mostly cloudy 10 - - - -
 
Date/Time
EST
Temp

°C
Wind Pressure Rain
since 9am
mm
Weather Cloud Vis
km
Sea
Height
m
Swell
Dir
 
Speed
knots
Gust
knots
hPa Trend Height
m
Period
s
Dir
23/11:30pm 19.4 CALM 0 0 1018.0 - 0.4 - Partly cloudy 10 - - - -
23/11:00pm 19.5 ENE 1 3 1018.1 - 0.4 - Cloudy 10 - - - -
23/10:30pm 19.8 CALM 0 0 1018.3 - 0.4 - Partly cloudy 10 - - - -
23/10:00pm 19.9 CALM 0 0 1018.4 - 0.2 - Partly cloudy 10 - - - -
23/09:30pm 20.1 CALM 0 0 1018.4 - 0.0 - Partly cloudy 10 - - - -
23/09:00pm 20.2 CALM 0 0 1018.4 - 0.0 Rain Cloudy 10 - - - -
23/08:30pm 20.1 CALM 0 0 1018.5 - 0.0 - - 10 - - - -
23/08:00pm 20.4 CALM 0 0 1018.4 - 0.0 - - 10 - - - -
23/07:30pm 20.5 ENE 2 3 1018.5 - 0.0 - - 10 - - - -
23/07:00pm 21.1 CALM 0 0 1018.4 - 0.0 - - 10 - - - -
23/06:30pm 21.4 CALM 0 0 1018.2 - 0.0 - - 10 - - - -
23/06:00pm 21.6 CALM 0 0 1017.9 - 0.0 - Cloudy 10 - - - -
23/05:30pm 22.2 ENE 2 3 1017.7 - 0.0 - - 10 - - - -
23/05:00pm 22.6 ENE 3 4 1017.5 - 0.0 - - 10 - - - -
23/04:30pm 23.0 E 4 5 1017.2 - 0.0 - - 10 - - - -
23/04:00pm 23.4 ESE 5 7 1017.1 - 0.0 - - 10 - - - -
23/03:30pm 24.0 ESE 6 8 1016.8 - 0.0 - - 10 - - - -
23/03:00pm 24.3 ESE 5 8 1016.7 - 0.0 - Partly cloudy 10 - - - -
23/02:30pm 24.7 E 6 9 1016.7 - 0.0 - Partly cloudy 10 - - - -
23/02:00pm 25.1 ESE 8 11 1016.7 - 0.0 - - 10 - - - -
23/01:30pm 25.2 ESE 8 11 1017.0 - 0.0 - Partly cloudy 10 - - - -
23/01:00pm 25.2 SE 9 13 1017.4 - 0.0 - Partly cloudy 10 - - - -
23/12:30pm 25.8 SE 7 12 1017.9 - 0.0 - Partly cloudy 10 - - - -
23/12:00pm 26.0 ESE 9 13 1018.5 - 0.0 - Cloudy 10 - - - -
23/11:30am 25.8 ESE 7 11 1018.8 - 0.0 - Partly cloudy 10 - - - -
23/11:00am 25.5 ESE 6 9 1018.7 - 0.0 - Partly cloudy 10 - - - -
23/10:30am 24.2 SE 7 11 1019.3 - 0.0 - - 10 - - - -
23/10:00am 24.6 ESE 8 11 1019.7 - 0.0 - Partly cloudy 10 - - - -
23/09:30am 24.1 ESE 8 11 1019.8 - 0.0 - - 10 - - - -
23/09:00am 23.8 ESE 6 8 1019.9 - 0.2 - Mostly clear 10 - - - -
23/08:30am 23.3 SE 5 8 1019.3 - 0.2 - - 10 - - - -
23/08:00am 22.2 SE 5 8 1019.1 - 0.2 - - 10 - - - -
23/07:30am 19.6 SSE 1 3 1019.1 - 0.2 - - 10 - - - -
23/07:00am 18.2 SSW 3 4 1019.0 - 0.2 - - 10 - - - -
23/06:30am 18.1 S 2 4 1018.9 - 0.2 - - 10 - - - -
23/06:00am 19.4 S 4 6 1018.7 - 0.2 - Cloudy 10 - - - -
23/05:30am 19.1 SSE 4 5 1018.3 - 0.2 - - 10 - - - -
23/05:00am 19.2 SE 3 4 1018.3 - 0.2 - Partly cloudy 10 - - - -
23/04:30am 19.4 SE 4 5 1018.3 - 0.2 - Partly cloudy 10 - - - -
23/04:00am 19.6 SSE 5 6 1018.6 - 0.2 - Cloudy 10 - - - -
23/03:30am 19.6 SW 2 4 1018.9 - 0.2 - Partly cloudy 10 - - - -
23/03:00am 19.6 SE 3 4 1018.6 - 0.2 Recent precip. Cloudy 10 - - - -
23/02:30am 19.2 SSE 5 7 1019.1 - 0.2 - Partly cloudy 10 - - - -
23/02:00am 18.7 CALM 0 3 1019.4 - 0.2 - Partly cloudy 10 - - - -
23/01:30am 19.0 S 5 5 1019.3 - 0.2 - - 10 - - - -
23/01:00am 19.2 S 5 6 1019.2 - 0.2 - - 10 - - - -
23/12:30am 19.6 S 4 6 1019.1 - 0.2 - - 10 - - - -
23/12:00am 19.8 SSE 5 6 1019.3 - 0.2 - Partly cloudy 10 - - - -
 
Date/Time
EST
Temp

°C
Wind Pressure Rain
since 9am
mm
Weather Cloud Vis
km
Sea
Height
m
Swell
Dir
 
Speed
knots
Gust
knots
hPa Trend Height
m
Period
s
Dir
22/11:30pm 20.1 S 4 5 1019.6 - 0.2 - Cloudy 10 - - - -
22/11:00pm 20.0 S 5 7 1019.7 - 0.2 - Cloudy 10 - - - -
22/10:30pm 19.8 SSE 3 5 1019.9 - 0.2 - Cloudy 10 - - - -
22/10:00pm 19.7 SSE 4 5 1019.9 - 0.2 - Partly cloudy 10 - - - -
22/09:30pm 20.0 SW 2 4 1020.4 - 0.2 - Cloudy 10 - - - -
22/09:00pm 20.2 CALM 0 0 1020.3 - 0.2 - Mostly cloudy 10 - - - -
22/08:30pm 20.1 CALM 0 0 1020.5 - 0.2 - Partly cloudy 10 - - - -
22/08:00pm 20.2 CALM 0 0 1020.6 - 0.2 - Partly cloudy 10 - - - -
22/07:30pm 20.1 CALM 0 0 1020.7 - 0.2 - Partly cloudy 10 - - - -
22/07:00pm 20.4 SE 4 7 1020.6 - 0.0 - Partly cloudy 10 - - - -
22/06:30pm 20.1 S 6 8 1020.3 - 0.0 - - 10 - - - -
22/06:00pm 20.8 SE 7 11 1020.0 - 0.0 - Cloudy 10 - - - -
22/05:30pm 21.1 SE 6 10 1019.8 - 0.0 - Partly cloudy 10 - - - -
22/05:00pm 21.8 SE 7 12 1019.7 - 0.0 - Cloudy 10 - - - -
22/04:30pm 22.3 SE 7 11 1019.4 - 0.0 - Partly cloudy 10 - - - -
22/04:12pm 22.1 ESE 7 11 1019.3 - 0.0 - Partly cloudy 10 - - - -
22/04:02pm 21.9 E 8 13 1019.3 - 0.0 - Partly cloudy 7 - - - -
22/04:00pm 22.1 E 8 15 1019.3 - 0.0 - Partly cloudy 9 - - - -
22/03:30pm 23.7 ESE 8 12 1019.2 - 0.0 - Partly cloudy 10 - - - -
22/03:00pm 24.4 E 9 13 1019.2 - 0.0 - - 10 - - - -
22/02:30pm 25.1 ESE 9 13 1019.0 - 0.0 - Partly cloudy 10 - - - -
22/02:00pm 24.6 ESE 8 12 1019.2 - 0.0 - - 10 - - - -
22/01:30pm 24.3 E 9 13 1019.4 - 0.0 - Partly cloudy 10 - - - -
22/01:00pm 25.5 ESE 7 10 1019.6 - 0.0 - Partly cloudy 10 - - - -
22/12:30pm 26.4 ESE 9 13 1019.9 - 0.0 - Partly cloudy 10 - - - -
22/12:00pm 26.2 ESE 10 15 1020.6 - 0.0 - Mostly clear 10 - - - -

Other Formats:

Comma delimited format used in spreadsheet applications
http://www.bom.gov.au/fwo/IDQ60701/IDQ60701.94370.axf

JavaScript Object Notation format (JSON) in row-major order
http://www.bom.gov.au/fwo/IDQ60701/IDQ60701.94370.json